sensor_id;sensor_type;location;lat;lon;timestamp;P1;durP1;ratioP1;P2;durP2;ratioP2
54269;SDS011;40181;51.560;13.000;2022-10-19T00:01:47;5.18;;;2.83;;
54269;SDS011;40181;51.560;13.000;2022-10-19T00:04:19;5.30;;;3.40;;
54269;SDS011;40181;51.560;13.000;2022-10-19T00:06:48;4.25;;;2.45;;
54269;SDS011;40181;51.560;13.000;2022-10-19T00:09:17;6.40;;;3.85;;
54269;SDS011;40181;51.560;13.000;2022-10-19T00:11:48;5.18;;;3.63;;
54269;SDS011;40181;51.560;13.000;2022-10-19T00:14:18;5.78;;;2.90;;
54269;SDS011;40181;51.560;13.000;2022-10-19T00:16:52;6.18;;;3.33;;
54269;SDS011;40181;51.560;13.000;2022-10-19T00:19:23;6.65;;;3.00;;
54269;SDS011;40181;51.560;13.000;2022-10-19T00:21:54;4.25;;;2.67;;
54269;SDS011;40181;51.560;13.000;2022-10-19T00:24:24;4.03;;;2.38;;
54269;SDS011;40181;51.560;13.000;2022-10-19T00:26:53;4.00;;;3.00;;
54269;SDS011;40181;51.560;13.000;2022-10-19T00:29:22;5.50;;;3.15;;
54269;SDS011;40181;51.560;13.000;2022-10-19T00:31:54;6.13;;;2.72;;
54269;SDS011;40181;51.560;13.000;2022-10-19T00:34:23;3.35;;;2.83;;
54269;SDS011;40181;51.560;13.000;2022-10-19T00:36:52;11.15;;;2.92;;
54269;SDS011;40181;51.560;13.000;2022-10-19T00:39:22;3.03;;;2.40;;
54269;SDS011;40181;51.560;13.000;2022-10-19T00:41:51;5.10;;;3.58;;
54269;SDS011;40181;51.560;13.000;2022-10-19T00:47:29;7.40;;;4.88;;
54269;SDS011;40181;51.560;13.000;2022-10-19T00:49:59;5.90;;;4.57;;
54269;SDS011;40181;51.560;13.000;2022-10-19T00:52:30;6.68;;;5.13;;
54269;SDS011;40181;51.560;13.000;2022-10-19T00:55:00;3.80;;;2.50;;
54269;SDS011;40181;51.560;13.000;2022-10-19T00:57:29;4.70;;;3.55;;
54269;SDS011;40181;51.560;13.000;2022-10-19T01:00:00;6.57;;;4.53;;
54269;SDS011;40181;51.560;13.000;2022-10-19T01:02:36;13.55;;;5.25;;
54269;SDS011;40181;51.560;13.000;2022-10-19T01:10:56;7.90;;;3.53;;
54269;SDS011;40181;51.560;13.000;2022-10-19T01:13:53;4.55;;;3.40;;
54269;SDS011;40181;51.560;13.000;2022-10-19T01:16:45;4.18;;;2.95;;
54269;SDS011;40181;51.560;13.000;2022-10-19T01:19:32;6.10;;;4.07;;
54269;SDS011;40181;51.560;13.000;2022-10-19T01:22:37;5.90;;;3.67;;
54269;SDS011;40181;51.560;13.000;2022-10-19T01:25:30;5.30;;;3.15;;
54269;SDS011;40181;51.560;13.000;2022-10-19T01:28:23;3.55;;;2.38;;
54269;SDS011;40181;51.560;13.000;2022-10-19T01:31:12;3.72;;;2.38;;
54269;SDS011;40181;51.560;13.000;2022-10-19T01:33:52;5.72;;;3.10;;
54269;SDS011;40181;51.560;13.000;2022-10-19T01:36:30;5.13;;;3.03;;
54269;SDS011;40181;51.560;13.000;2022-10-19T01:39:07;7.60;;;4.55;;
54269;SDS011;40181;51.560;13.000;2022-10-19T01:41:44;4.13;;;3.05;;
54269;SDS011;40181;51.560;13.000;2022-10-19T01:44:24;8.15;;;3.78;;
54269;SDS011;40181;51.560;13.000;2022-10-19T01:47:04;4.82;;;3.00;;
54269;SDS011;40181;51.560;13.000;2022-10-19T01:49:39;5.40;;;3.33;;
54269;SDS011;40181;51.560;13.000;2022-10-19T01:52:14;4.47;;;3.58;;
54269;SDS011;40181;51.560;13.000;2022-10-19T01:54:48;5.13;;;3.85;;
54269;SDS011;40181;51.560;13.000;2022-10-19T01:57:22;5.68;;;4.05;;
54269;SDS011;40181;51.560;13.000;2022-10-19T01:59:56;5.93;;;3.33;;
54269;SDS011;40181;51.560;13.000;2022-10-19T02:02:34;8.02;;;4.35;;
54269;SDS011;40181;51.560;13.000;2022-10-19T02:05:09;6.07;;;3.17;;
54269;SDS011;40181;51.560;13.000;2022-10-19T02:07:40;5.63;;;3.58;;
54269;SDS011;40181;51.560;13.000;2022-10-19T02:10:15;5.05;;;3.10;;
54269;SDS011;40181;51.560;13.000;2022-10-19T02:12:46;6.18;;;3.83;;
54269;SDS011;40181;51.560;13.000;2022-10-19T02:15:16;4.55;;;3.13;;
54269;SDS011;40181;51.560;13.000;2022-10-19T02:17:53;4.65;;;3.05;;
54269;SDS011;40181;51.560;13.000;2022-10-19T02:20:25;4.60;;;3.15;;
54269;SDS011;40181;51.560;13.000;2022-10-19T02:22:55;5.07;;;3.50;;
54269;SDS011;40181;51.560;13.000;2022-10-19T02:25:24;8.63;;;3.45;;
54269;SDS011;40181;51.560;13.000;2022-10-19T02:27:54;3.95;;;2.75;;
54269;SDS011;40181;51.560;13.000;2022-10-19T02:30:23;8.90;;;4.40;;
54269;SDS011;40181;51.560;13.000;2022-10-19T02:32:55;5.95;;;3.97;;
54269;SDS011;40181;51.560;13.000;2022-10-19T02:35:25;5.95;;;3.13;;
54269;SDS011;40181;51.560;13.000;2022-10-19T02:37:55;2.65;;;2.05;;
54269;SDS011;40181;51.560;13.000;2022-10-19T02:40:30;4.40;;;2.80;;
54269;SDS011;40181;51.560;13.000;2022-10-19T02:43:05;4.15;;;3.08;;
54269;SDS011;40181;51.560;13.000;2022-10-19T02:45:39;8.57;;;3.58;;
54269;SDS011;40181;51.560;13.000;2022-10-19T02:48:19;4.88;;;3.10;;
54269;SDS011;40181;51.560;13.000;2022-10-19T02:50:51;5.38;;;3.17;;
54269;SDS011;40181;51.560;13.000;2022-10-19T02:53:20;4.72;;;3.25;;
54269;SDS011;40181;51.560;13.000;2022-10-19T02:55:49;4.28;;;2.58;;
54269;SDS011;40181;51.560;13.000;2022-10-19T02:58:19;5.43;;;3.97;;
54269;SDS011;40181;51.560;13.000;2022-10-19T03:00:49;5.50;;;2.28;;
54269;SDS011;40181;51.560;13.000;2022-10-19T03:03:20;5.95;;;3.75;;
54269;SDS011;40181;51.560;13.000;2022-10-19T03:05:50;5.07;;;3.45;;
54269;SDS011;40181;51.560;13.000;2022-10-19T03:08:19;4.25;;;2.85;;
54269;SDS011;40181;51.560;13.000;2022-10-19T03:10:48;4.72;;;3.13;;
54269;SDS011;40181;51.560;13.000;2022-10-19T03:13:17;4.60;;;2.95;;
54269;SDS011;40181;51.560;13.000;2022-10-19T03:15:46;5.53;;;3.58;;
54269;SDS011;40181;51.560;13.000;2022-10-19T03:18:16;4.73;;;3.07;;
54269;SDS011;40181;51.560;13.000;2022-10-19T03:20:48;7.13;;;3.45;;
54269;SDS011;40181;51.560;13.000;2022-10-19T03:23:18;4.65;;;3.03;;
54269;SDS011;40181;51.560;13.000;2022-10-19T03:25:47;6.63;;;2.95;;
54269;SDS011;40181;51.560;13.000;2022-10-19T03:28:16;4.90;;;3.28;;
54269;SDS011;40181;51.560;13.000;2022-10-19T03:30:45;5.70;;;3.65;;
54269;SDS011;40181;51.560;13.000;2022-10-19T03:33:15;5.55;;;3.03;;
54269;SDS011;40181;51.560;13.000;2022-10-19T03:35:46;3.90;;;2.55;;
54269;SDS011;40181;51.560;13.000;2022-10-19T03:38:16;9.05;;;2.97;;
54269;SDS011;40181;51.560;13.000;2022-10-19T03:40:45;7.75;;;3.38;;
54269;SDS011;40181;51.560;13.000;2022-10-19T03:43:14;5.07;;;2.67;;
54269;SDS011;40181;51.560;13.000;2022-10-19T03:45:44;6.28;;;4.55;;
54269;SDS011;40181;51.560;13.000;2022-10-19T03:48:13;6.75;;;3.47;;
54269;SDS011;40181;51.560;13.000;2022-10-19T03:50:43;14.48;;;3.83;;
54269;SDS011;40181;51.560;13.000;2022-10-19T03:53:14;4.38;;;2.97;;
54269;SDS011;40181;51.560;13.000;2022-10-19T03:55:44;10.98;;;3.25;;
54269;SDS011;40181;51.560;13.000;2022-10-19T03:58:13;4.82;;;3.25;;
54269;SDS011;40181;51.560;13.000;2022-10-19T04:00:43;5.15;;;3.58;;
54269;SDS011;40181;51.560;13.000;2022-10-19T04:03:12;4.35;;;2.78;;
54269;SDS011;40181;51.560;13.000;2022-10-19T04:05:41;4.88;;;3.63;;
54269;SDS011;40181;51.560;13.000;2022-10-19T04:08:13;5.75;;;2.72;;
54269;SDS011;40181;51.560;13.000;2022-10-19T04:10:42;6.85;;;4.18;;
54269;SDS011;40181;51.560;13.000;2022-10-19T04:13:11;8.35;;;3.55;;
54269;SDS011;40181;51.560;13.000;2022-10-19T04:15:41;5.15;;;3.25;;
54269;SDS011;40181;51.560;13.000;2022-10-19T04:18:10;5.32;;;2.75;;
54269;SDS011;40181;51.560;13.000;2022-10-19T04:20:39;6.25;;;2.80;;
54269;SDS011;40181;51.560;13.000;2022-10-19T04:23:08;6.03;;;4.38;;
54269;SDS011;40181;51.560;13.000;2022-10-19T04:25:40;8.07;;;5.03;;
54269;SDS011;40181;51.560;13.000;2022-10-19T04:28:09;4.82;;;3.30;;
54269;SDS011;40181;51.560;13.000;2022-10-19T04:30:38;4.35;;;2.72;;
54269;SDS011;40181;51.560;13.000;2022-10-19T04:33:07;8.63;;;3.80;;
54269;SDS011;40181;51.560;13.000;2022-10-19T04:35:37;4.20;;;3.15;;
54269;SDS011;40181;51.560;13.000;2022-10-19T04:38:06;6.88;;;3.63;;
54269;SDS011;40181;51.560;13.000;2022-10-19T04:40:35;4.78;;;3.22;;
54269;SDS011;40181;51.560;13.000;2022-10-19T04:43:07;4.47;;;2.65;;
54269;SDS011;40181;51.560;13.000;2022-10-19T04:45:36;12.05;;;3.75;;
54269;SDS011;40181;51.560;13.000;2022-10-19T04:48:05;4.68;;;2.85;;
54269;SDS011;40181;51.560;13.000;2022-10-19T04:50:35;5.82;;;3.33;;
54269;SDS011;40181;51.560;13.000;2022-10-19T04:53:04;4.88;;;3.33;;
54269;SDS011;40181;51.560;13.000;2022-10-19T04:55:33;5.13;;;3.42;;
54269;SDS011;40181;51.560;13.000;2022-10-19T04:58:10;7.10;;;3.50;;
54269;SDS011;40181;51.560;13.000;2022-10-19T05:00:40;5.75;;;3.22;;
54269;SDS011;40181;51.560;13.000;2022-10-19T05:03:09;5.63;;;3.17;;
54269;SDS011;40181;51.560;13.000;2022-10-19T05:05:38;9.18;;;3.65;;
54269;SDS011;40181;51.560;13.000;2022-10-19T05:08:08;3.53;;;2.60;;
54269;SDS011;40181;51.560;13.000;2022-10-19T05:10:38;7.82;;;3.20;;
54269;SDS011;40181;51.560;13.000;2022-10-19T05:13:08;3.13;;;2.40;;
54269;SDS011;40181;51.560;13.000;2022-10-19T05:15:39;3.08;;;2.00;;
54269;SDS011;40181;51.560;13.000;2022-10-19T05:18:08;4.25;;;2.10;;
54269;SDS011;40181;51.560;13.000;2022-10-19T05:20:38;17.00;;;3.28;;
54269;SDS011;40181;51.560;13.000;2022-10-19T05:23:07;4.55;;;2.60;;
54269;SDS011;40181;51.560;13.000;2022-10-19T05:25:36;3.08;;;2.03;;
54269;SDS011;40181;51.560;13.000;2022-10-19T05:28:05;4.25;;;2.42;;
54269;SDS011;40181;51.560;13.000;2022-10-19T05:30:37;2.85;;;1.58;;
54269;SDS011;40181;51.560;13.000;2022-10-19T05:33:06;2.70;;;2.13;;
54269;SDS011;40181;51.560;13.000;2022-10-19T05:35:35;5.75;;;3.15;;
54269;SDS011;40181;51.560;13.000;2022-10-19T05:38:04;4.70;;;3.00;;
54269;SDS011;40181;51.560;13.000;2022-10-19T05:40:33;3.25;;;2.30;;
54269;SDS011;40181;51.560;13.000;2022-10-19T05:43:03;3.10;;;1.92;;
54269;SDS011;40181;51.560;13.000;2022-10-19T05:45:32;2.95;;;1.83;;
54269;SDS011;40181;51.560;13.000;2022-10-19T05:48:04;3.75;;;2.47;;
54269;SDS011;40181;51.560;13.000;2022-10-19T05:50:33;7.13;;;1.95;;
54269;SDS011;40181;51.560;13.000;2022-10-19T05:53:03;4.47;;;2.38;;
54269;SDS011;40181;51.560;13.000;2022-10-19T05:55:33;2.97;;;2.28;;
54269;SDS011;40181;51.560;13.000;2022-10-19T05:58:02;4.07;;;1.88;;
54269;SDS011;40181;51.560;13.000;2022-10-19T06:00:32;5.20;;;2.58;;
54269;SDS011;40181;51.560;13.000;2022-10-19T06:03:04;5.78;;;2.38;;
54269;SDS011;40181;51.560;13.000;2022-10-19T06:05:34;5.22;;;2.17;;
54269;SDS011;40181;51.560;13.000;2022-10-19T06:08:04;3.35;;;1.73;;
54269;SDS011;40181;51.560;13.000;2022-10-19T06:10:33;3.45;;;1.77;;
54269;SDS011;40181;51.560;13.000;2022-10-19T06:13:02;6.10;;;1.90;;
54269;SDS011;40181;51.560;13.000;2022-10-19T06:15:31;2.90;;;1.80;;
54269;SDS011;40181;51.560;13.000;2022-10-19T06:18:06;4.80;;;1.45;;
54269;SDS011;40181;51.560;13.000;2022-10-19T06:20:37;1.90;;;1.30;;
54269;SDS011;40181;51.560;13.000;2022-10-19T06:23:08;11.57;;;2.05;;
54269;SDS011;40181;51.560;13.000;2022-10-19T06:25:37;2.40;;;1.60;;
54269;SDS011;40181;51.560;13.000;2022-10-19T06:28:08;1.92;;;1.48;;
54269;SDS011;40181;51.560;13.000;2022-10-19T06:30:38;2.83;;;1.50;;
54269;SDS011;40181;51.560;13.000;2022-10-19T06:33:11;8.67;;;2.60;;
54269;SDS011;40181;51.560;13.000;2022-10-19T06:35:40;4.55;;;1.65;;
54269;SDS011;40181;51.560;13.000;2022-10-19T06:38:09;3.28;;;1.65;;
54269;SDS011;40181;51.560;13.000;2022-10-19T06:40:39;7.00;;;1.75;;
54269;SDS011;40181;51.560;13.000;2022-10-19T06:43:08;3.70;;;2.00;;
54269;SDS011;40181;51.560;13.000;2022-10-19T06:45:38;2.63;;;1.67;;
54269;SDS011;40181;51.560;13.000;2022-10-19T06:48:09;6.38;;;1.70;;
54269;SDS011;40181;51.560;13.000;2022-10-19T06:50:39;4.55;;;1.23;;
54269;SDS011;40181;51.560;13.000;2022-10-19T06:53:08;4.03;;;1.95;;
54269;SDS011;40181;51.560;13.000;2022-10-19T06:55:37;3.70;;;1.38;;
54269;SDS011;40181;51.560;13.000;2022-10-19T06:58:07;2.35;;;1.70;;
54269;SDS011;40181;51.560;13.000;2022-10-19T07:00:36;5.60;;;2.28;;
54269;SDS011;40181;51.560;13.000;2022-10-19T07:03:05;2.40;;;1.63;;
54269;SDS011;40181;51.560;13.000;2022-10-19T07:05:37;2.92;;;1.60;;
54269;SDS011;40181;51.560;13.000;2022-10-19T07:08:06;3.53;;;1.65;;
54269;SDS011;40181;51.560;13.000;2022-10-19T07:10:35;3.33;;;1.95;;
54269;SDS011;40181;51.560;13.000;2022-10-19T07:13:05;2.33;;;1.35;;
54269;SDS011;40181;51.560;13.000;2022-10-19T07:15:34;2.35;;;1.55;;
54269;SDS011;40181;51.560;13.000;2022-10-19T07:18:03;6.53;;;1.90;;
54269;SDS011;40181;51.560;13.000;2022-10-19T07:20:32;4.10;;;1.77;;
54269;SDS011;40181;51.560;13.000;2022-10-19T07:23:04;3.05;;;1.88;;
54269;SDS011;40181;51.560;13.000;2022-10-19T07:25:34;5.22;;;1.88;;
54269;SDS011;40181;51.560;13.000;2022-10-19T07:28:03;4.03;;;1.27;;
54269;SDS011;40181;51.560;13.000;2022-10-19T07:30:33;2.08;;;1.40;;
54269;SDS011;40181;51.560;13.000;2022-10-19T07:33:05;1.77;;;1.10;;
54269;SDS011;40181;51.560;13.000;2022-10-19T07:35:34;1.45;;;0.98;;
54269;SDS011;40181;51.560;13.000;2022-10-19T07:38:06;1.20;;;1.10;;
54269;SDS011;40181;51.560;13.000;2022-10-19T07:40:35;2.75;;;1.25;;
54269;SDS011;40181;51.560;13.000;2022-10-19T07:43:04;3.28;;;1.48;;
54269;SDS011;40181;51.560;13.000;2022-10-19T07:45:34;5.63;;;0.90;;
54269;SDS011;40181;51.560;13.000;2022-10-19T07:48:03;2.00;;;1.10;;
54269;SDS011;40181;51.560;13.000;2022-10-19T07:50:33;2.90;;;1.23;;
54269;SDS011;40181;51.560;13.000;2022-10-19T07:53:02;2.13;;;1.17;;
54269;SDS011;40181;51.560;13.000;2022-10-19T07:55:34;4.28;;;1.58;;
54269;SDS011;40181;51.560;13.000;2022-10-19T07:58:03;3.40;;;1.23;;
54269;SDS011;40181;51.560;13.000;2022-10-19T08:00:32;4.25;;;1.38;;
54269;SDS011;40181;51.560;13.000;2022-10-19T08:03:02;2.88;;;1.27;;
54269;SDS011;40181;51.560;13.000;2022-10-19T08:05:31;2.45;;;1.20;;
54269;SDS011;40181;51.560;13.000;2022-10-19T08:08:01;3.85;;;1.77;;
54269;SDS011;40181;51.560;13.000;2022-10-19T08:10:33;3.10;;;1.42;;
54269;SDS011;40181;51.560;13.000;2022-10-19T08:13:02;5.90;;;0.98;;
54269;SDS011;40181;51.560;13.000;2022-10-19T08:15:31;2.78;;;1.52;;
54269;SDS011;40181;51.560;13.000;2022-10-19T08:18:01;3.35;;;1.40;;
54269;SDS011;40181;51.560;13.000;2022-10-19T08:20:30;4.22;;;1.35;;
54269;SDS011;40181;51.560;13.000;2022-10-19T08:22:59;8.80;;;1.55;;
54269;SDS011;40181;51.560;13.000;2022-10-19T08:25:28;1.50;;;1.02;;
54269;SDS011;40181;51.560;13.000;2022-10-19T08:28:00;3.30;;;1.02;;
54269;SDS011;40181;51.560;13.000;2022-10-19T08:30:29;2.40;;;0.90;;
54269;SDS011;40181;51.560;13.000;2022-10-19T08:35:32;2.03;;;0.98;;
54269;SDS011;40181;51.560;13.000;2022-10-19T08:38:01;3.08;;;1.35;;
54269;SDS011;40181;51.560;13.000;2022-10-19T08:40:31;11.27;;;1.55;;
54269;SDS011;40181;51.560;13.000;2022-10-19T08:43:03;6.53;;;1.08;;
54269;SDS011;40181;51.560;13.000;2022-10-19T08:48:21;1.73;;;1.17;;
54269;SDS011;40181;51.560;13.000;2022-10-19T08:50:54;1.75;;;0.77;;
54269;SDS011;40181;51.560;13.000;2022-10-19T08:53:31;0.47;;;0.38;;
54269;SDS011;40181;51.560;13.000;2022-10-19T08:56:16;0.85;;;0.50;;
54269;SDS011;40181;51.560;13.000;2022-10-19T08:58:58;1.55;;;0.77;;
54269;SDS011;40181;51.560;13.000;2022-10-19T09:01:40;0.80;;;0.52;;
54269;SDS011;40181;51.560;13.000;2022-10-19T09:04:17;0.98;;;0.75;;
54269;SDS011;40181;51.560;13.000;2022-10-19T09:06:53;0.30;;;0.30;;
54269;SDS011;40181;51.560;13.000;2022-10-19T09:09:49;2.58;;;0.70;;
54269;SDS011;40181;51.560;13.000;2022-10-19T09:12:30;1.27;;;0.47;;
54269;SDS011;40181;51.560;13.000;2022-10-19T09:15:15;3.30;;;1.27;;
54269;SDS011;40181;51.560;13.000;2022-10-19T09:17:49;0.60;;;0.60;;
54269;SDS011;40181;51.560;13.000;2022-10-19T09:20:18;1.45;;;0.50;;
54269;SDS011;40181;51.560;13.000;2022-10-19T09:22:51;1.70;;;0.77;;
54269;SDS011;40181;51.560;13.000;2022-10-19T09:25:46;1.35;;;0.57;;
54269;SDS011;40181;51.560;13.000;2022-10-19T09:28:19;1.40;;;0.70;;
54269;SDS011;40181;51.560;13.000;2022-10-19T09:31:07;0.88;;;0.68;;
54269;SDS011;40181;51.560;13.000;2022-10-19T09:33:42;0.50;;;0.32;;
54269;SDS011;40181;51.560;13.000;2022-10-19T09:36:19;1.92;;;1.05;;
54269;SDS011;40181;51.560;13.000;2022-10-19T09:38:50;0.52;;;0.47;;
54269;SDS011;40181;51.560;13.000;2022-10-19T09:41:20;0.77;;;0.60;;
54269;SDS011;40181;51.560;13.000;2022-10-19T09:43:52;1.98;;;0.45;;
54269;SDS011;40181;51.560;13.000;2022-10-19T09:46:33;0.20;;;0.20;;
54269;SDS011;40181;51.560;13.000;2022-10-19T09:49:15;1.02;;;0.30;;
54269;SDS011;40181;51.560;13.000;2022-10-19T09:51:46;0.65;;;0.57;;
54269;SDS011;40181;51.560;13.000;2022-10-19T09:54:25;1.95;;;0.35;;
54269;SDS011;40181;51.560;13.000;2022-10-19T09:57:26;0.10;;;0.10;;
54269;SDS011;40181;51.560;13.000;2022-10-19T09:59:56;0.75;;;0.30;;
54269;SDS011;40181;51.560;13.000;2022-10-19T10:02:31;1.13;;;0.63;;
54269;SDS011;40181;51.560;13.000;2022-10-19T10:05:04;1.30;;;0.40;;
54269;SDS011;40181;51.560;13.000;2022-10-19T10:07:41;0.47;;;0.40;;
54269;SDS011;40181;51.560;13.000;2022-10-19T10:10:17;0.75;;;0.38;;
54269;SDS011;40181;51.560;13.000;2022-10-19T10:12:50;2.92;;;0.32;;
54269;SDS011;40181;51.560;13.000;2022-10-19T10:15:22;1.60;;;0.73;;
54269;SDS011;40181;51.560;13.000;2022-10-19T10:17:56;6.22;;;0.98;;
54269;SDS011;40181;51.560;13.000;2022-10-19T10:20:28;14.07;;;0.47;;
54269;SDS011;40181;51.560;13.000;2022-10-19T10:23:00;1.23;;;0.60;;
54269;SDS011;40181;51.560;13.000;2022-10-19T10:25:33;4.93;;;0.55;;
54269;SDS011;40181;51.560;13.000;2022-10-19T10:28:15;7.32;;;0.73;;
54269;SDS011;40181;51.560;13.000;2022-10-19T10:30:47;1.00;;;0.43;;
54269;SDS011;40181;51.560;13.000;2022-10-19T10:33:25;0.60;;;0.40;;
54269;SDS011;40181;51.560;13.000;2022-10-19T10:35:59;1.25;;;0.43;;
54269;SDS011;40181;51.560;13.000;2022-10-19T10:38:32;0.20;;;0.20;;
54269;SDS011;40181;51.560;13.000;2022-10-19T10:41:09;1.27;;;0.38;;
54269;SDS011;40181;51.560;13.000;2022-10-19T10:43:48;0.60;;;0.43;;
54269;SDS011;40181;51.560;13.000;2022-10-19T10:46:23;1.27;;;0.55;;
54269;SDS011;40181;51.560;13.000;2022-10-19T10:48:58;2.88;;;0.68;;
54269;SDS011;40181;51.560;13.000;2022-10-19T10:51:32;0.22;;;0.17;;
54269;SDS011;40181;51.560;13.000;2022-10-19T10:54:14;0.73;;;0.13;;
54269;SDS011;40181;51.560;13.000;2022-10-19T10:59:51;6.93;;;0.55;;
54269;SDS011;40181;51.560;13.000;2022-10-19T11:02:30;0.40;;;0.30;;
54269;SDS011;40181;51.560;13.000;2022-10-19T11:05:12;0.30;;;0.30;;
54269;SDS011;40181;51.560;13.000;2022-10-19T11:07:47;0.43;;;0.30;;
54269;SDS011;40181;51.560;13.000;2022-10-19T11:10:23;0.63;;;0.20;;
54269;SDS011;40181;51.560;13.000;2022-10-19T11:12:58;0.55;;;0.30;;
54269;SDS011;40181;51.560;13.000;2022-10-19T11:15:34;0.25;;;0.15;;
54269;SDS011;40181;51.560;13.000;2022-10-19T11:18:13;0.55;;;0.40;;
54269;SDS011;40181;51.560;13.000;2022-10-19T11:20:52;1.25;;;0.40;;
54269;SDS011;40181;51.560;13.000;2022-10-19T11:23:33;0.30;;;0.30;;
54269;SDS011;40181;51.560;13.000;2022-10-19T11:26:18;0.25;;;0.20;;
54269;SDS011;40181;51.560;13.000;2022-10-19T11:29:14;1.15;;;0.22;;
54269;SDS011;40181;51.560;13.000;2022-10-19T11:32:03;0.65;;;0.40;;
54269;SDS011;40181;51.560;13.000;2022-10-19T11:34:51;0.32;;;0.10;;
54269;SDS011;40181;51.560;13.000;2022-10-19T11:37:52;0.20;;;0.17;;
54269;SDS011;40181;51.560;13.000;2022-10-19T11:40:36;1.42;;;0.75;;
54269;SDS011;40181;51.560;13.000;2022-10-19T11:43:10;0.00;;;0.00;;
54269;SDS011;40181;51.560;13.000;2022-10-19T11:45:49;0.10;;;0.10;;
54269;SDS011;40181;51.560;13.000;2022-10-19T11:48:39;0.80;;;0.40;;
54269;SDS011;40181;51.560;13.000;2022-10-19T11:51:24;1.27;;;0.47;;
54269;SDS011;40181;51.560;13.000;2022-10-19T11:54:08;0.40;;;0.17;;
54269;SDS011;40181;51.560;13.000;2022-10-19T11:56:51;0.20;;;0.20;;
54269;SDS011;40181;51.560;13.000;2022-10-19T11:59:28;0.55;;;0.30;;
54269;SDS011;40181;51.560;13.000;2022-10-19T12:02:13;0.40;;;0.25;;
54269;SDS011;40181;51.560;13.000;2022-10-19T12:05:15;0.10;;;0.10;;
54269;SDS011;40181;51.560;13.000;2022-10-19T12:07:54;0.13;;;0.05;;
54269;SDS011;40181;51.560;13.000;2022-10-19T12:10:41;0.15;;;0.10;;
54269;SDS011;40181;51.560;13.000;2022-10-19T12:13:20;0.60;;;0.35;;
54269;SDS011;40181;51.560;13.000;2022-10-19T12:16:09;0.20;;;0.20;;
54269;SDS011;40181;51.560;13.000;2022-10-19T12:18:41;0.30;;;0.30;;
54269;SDS011;40181;51.560;13.000;2022-10-19T12:21:18;0.52;;;0.40;;
54269;SDS011;40181;51.560;13.000;2022-10-19T12:23:53;0.28;;;0.25;;
54269;SDS011;40181;51.560;13.000;2022-10-19T12:26:28;0.55;;;0.25;;
54269;SDS011;40181;51.560;13.000;2022-10-19T12:29:02;0.15;;;0.10;;
54269;SDS011;40181;51.560;13.000;2022-10-19T12:31:38;0.22;;;0.22;;
54269;SDS011;40181;51.560;13.000;2022-10-19T12:34:09;0.70;;;0.20;;
54269;SDS011;40181;51.560;13.000;2022-10-19T12:36:54;1.02;;;0.45;;
54269;SDS011;40181;51.560;13.000;2022-10-19T12:39:32;0.20;;;0.20;;
54269;SDS011;40181;51.560;13.000;2022-10-19T12:42:12;0.20;;;0.20;;
54269;SDS011;40181;51.560;13.000;2022-10-19T12:45:01;0.75;;;0.20;;
54269;SDS011;40181;51.560;13.000;2022-10-19T12:53:44;0.28;;;0.22;;
54269;SDS011;40181;51.560;13.000;2022-10-19T12:56:19;0.40;;;0.30;;
54269;SDS011;40181;51.560;13.000;2022-10-19T12:58:54;0.20;;;0.20;;
54269;SDS011;40181;51.560;13.000;2022-10-19T13:01:27;2.92;;;0.50;;
54269;SDS011;40181;51.560;13.000;2022-10-19T13:04:10;0.30;;;0.20;;
54269;SDS011;40181;51.560;13.000;2022-10-19T13:06:42;0.20;;;0.20;;
54269;SDS011;40181;51.560;13.000;2022-10-19T13:09:21;3.15;;;0.40;;
54269;SDS011;40181;51.560;13.000;2022-10-19T13:14:56;0.10;;;0.10;;
54269;SDS011;40181;51.560;13.000;2022-10-19T13:17:37;0.03;;;0.03;;
54269;SDS011;40181;51.560;13.000;2022-10-19T13:26:21;0.43;;;0.15;;
54269;SDS011;40181;51.560;13.000;2022-10-19T13:28:59;0.60;;;0.25;;
54269;SDS011;40181;51.560;13.000;2022-10-19T13:31:32;0.10;;;0.10;;
54269;SDS011;40181;51.560;13.000;2022-10-19T13:34:01;0.25;;;0.15;;
54269;SDS011;40181;51.560;13.000;2022-10-19T13:36:38;0.57;;;0.30;;
54269;SDS011;40181;51.560;13.000;2022-10-19T13:39:27;0.10;;;0.10;;
54269;SDS011;40181;51.560;13.000;2022-10-19T13:41:57;0.20;;;0.20;;
54269;SDS011;40181;51.560;13.000;2022-10-19T13:44:28;0.20;;;0.20;;
54269;SDS011;40181;51.560;13.000;2022-10-19T13:47:21;2.47;;;0.57;;
54269;SDS011;40181;51.560;13.000;2022-10-19T13:52:55;0.25;;;0.20;;
54269;SDS011;40181;51.560;13.000;2022-10-19T13:55:53;0.15;;;0.15;;
54269;SDS011;40181;51.560;13.000;2022-10-19T13:59:01;0.20;;;0.20;;
54269;SDS011;40181;51.560;13.000;2022-10-19T14:05:44;0.10;;;0.10;;
54269;SDS011;40181;51.560;13.000;2022-10-19T14:12:08;0.10;;;0.10;;
54269;SDS011;40181;51.560;13.000;2022-10-19T14:14:48;0.15;;;0.13;;
54269;SDS011;40181;51.560;13.000;2022-10-19T14:17:18;0.60;;;0.35;;
54269;SDS011;40181;51.560;13.000;2022-10-19T14:19:55;1.35;;;0.70;;
54269;SDS011;40181;51.560;13.000;2022-10-19T14:22:26;0.52;;;0.40;;
54269;SDS011;40181;51.560;13.000;2022-10-19T14:25:01;1.80;;;0.38;;
54269;SDS011;40181;51.560;13.000;2022-10-19T14:27:33;0.40;;;0.35;;
54269;SDS011;40181;51.560;13.000;2022-10-19T14:30:04;0.73;;;0.23;;
54269;SDS011;40181;51.560;13.000;2022-10-19T14:32:43;0.20;;;0.10;;
54269;SDS011;40181;51.560;13.000;2022-10-19T14:35:17;0.15;;;0.15;;
54269;SDS011;40181;51.560;13.000;2022-10-19T14:37:49;0.68;;;0.30;;
54269;SDS011;40181;51.560;13.000;2022-10-19T14:40:24;1.35;;;0.40;;
54269;SDS011;40181;51.560;13.000;2022-10-19T14:42:57;0.88;;;0.50;;
54269;SDS011;40181;51.560;13.000;2022-10-19T14:45:29;0.77;;;0.28;;
54269;SDS011;40181;51.560;13.000;2022-10-19T14:48:00;0.40;;;0.20;;
54269;SDS011;40181;51.560;13.000;2022-10-19T14:50:37;0.85;;;0.40;;
54269;SDS011;40181;51.560;13.000;2022-10-19T14:53:18;1.80;;;0.30;;
54269;SDS011;40181;51.560;13.000;2022-10-19T14:56:00;1.25;;;0.30;;
54269;SDS011;40181;51.560;13.000;2022-10-19T14:58:36;0.60;;;0.20;;
54269;SDS011;40181;51.560;13.000;2022-10-19T15:01:14;0.20;;;0.20;;
54269;SDS011;40181;51.560;13.000;2022-10-19T15:06:20;0.10;;;0.10;;
54269;SDS011;40181;51.560;13.000;2022-10-19T15:08:53;3.60;;;1.35;;
54269;SDS011;40181;51.560;13.000;2022-10-19T15:11:26;0.40;;;0.32;;
54269;SDS011;40181;51.560;13.000;2022-10-19T15:13:59;6.80;;;0.45;;
54269;SDS011;40181;51.560;13.000;2022-10-19T15:16:39;0.28;;;0.28;;
54269;SDS011;40181;51.560;13.000;2022-10-19T15:19:15;0.40;;;0.40;;
54269;SDS011;40181;51.560;13.000;2022-10-19T15:22:13;0.57;;;0.50;;
54269;SDS011;40181;51.560;13.000;2022-10-19T15:27:30;0.60;;;0.38;;
54269;SDS011;40181;51.560;13.000;2022-10-19T15:30:03;0.77;;;0.70;;
54269;SDS011;40181;51.560;13.000;2022-10-19T15:32:50;0.70;;;0.38;;
54269;SDS011;40181;51.560;13.000;2022-10-19T15:35:26;0.63;;;0.40;;
54269;SDS011;40181;51.560;13.000;2022-10-19T15:38:03;0.60;;;0.40;;
54269;SDS011;40181;51.560;13.000;2022-10-19T15:40:35;0.70;;;0.52;;
54269;SDS011;40181;51.560;13.000;2022-10-19T15:46:05;0.45;;;0.40;;
54269;SDS011;40181;51.560;13.000;2022-10-19T15:48:48;0.82;;;0.50;;
54269;SDS011;40181;51.560;13.000;2022-10-19T15:51:32;1.05;;;0.70;;
54269;SDS011;40181;51.560;13.000;2022-10-19T15:54:06;0.80;;;0.65;;
54269;SDS011;40181;51.560;13.000;2022-10-19T15:56:36;0.40;;;0.40;;
54269;SDS011;40181;51.560;13.000;2022-10-19T15:59:10;0.80;;;0.47;;
54269;SDS011;40181;51.560;13.000;2022-10-19T16:01:42;1.42;;;0.68;;
54269;SDS011;40181;51.560;13.000;2022-10-19T16:04:13;0.88;;;0.45;;
54269;SDS011;40181;51.560;13.000;2022-10-19T16:06:43;1.30;;;0.75;;